EBCI/CRL METAR and TAF weather

Enter ICAO airport designator
Station Type Date Time Source
EBCI METAR 2022/06/29 00:20 UTC NOAA

EBCI 290020Z 13006KT CAVOK 16/11 Q1016 NOSIG


Station Type Date Time Source
EBCI Decoded METAR 2022/06/29 00:20 UTC NOAA

Charleroi / Gosselies, Belgium (EBCI) 50-28N 004-27E 192M
Jun 28, 2022 - 08:20 PM EDT / 2022.06.29 0020 UTC
Wind: from the SE (130 degrees) at 7 MPH (6 KT):0
Visibility: greater than 7 mile(s):0
Temperature: 60 F (16 C)
Dew Point: 51 F (11 C)
Relative Humidity: 72%
Pressure (altimeter): 30.00 in. Hg (1016 hPa)
ob: EBCI 290020Z 13006KT CAVOK 16/11 Q1016 NOSIG
cycle: 0

Station Type Date Time Source
EBCI TAF 2022/06/28 18:27 UTC NOAA

TAF EBCI 281700Z 2818/2924 VRB03KT CAVOK

Example: see airport list